Houston, TX (77061)

3:32 AM CST on February 14, 2016 (GMT -0600)
Durham Park | | Change Station
CLOSE
Current Station
Personal Weather Station
Location: Houston, TX
Elevation: 46 ft
Nearby Weather Stations

Elev 46 ft 29.61 °N, 95.26 °W | Updated 6 minutes ago

Scattered Clouds
Scattered Clouds
55.6 °F
Feels Like 55.6 °F
N
0.0
Wind Variable Wind from SW

Today
High -- | Low -- °F
--% Chance of Precip.
Yesterday
High -- | Low -- °F
Precip. -- in
Pressure 30.13 in
Visibility 10.0 miles
Clouds Scattered Clouds 3000 ft
Scattered Clouds 18000 ft
Dew Point 55 °F
Humidity 99%
Rainfall 0.00 in
Snow Depth Not available.
7:01 AM 6:09 PM
Waxing Crescent, 40% visible
METAR KHOU 140853Z 12004KT 10SM SCT030 SCT180 14/13 A3011 RMK AO2 SLP201 T01390128 56027
Pressure 30.13 in
Visibility 10.0 miles
Clouds Scattered Clouds 3000 ft
Scattered Clouds 18000 ft
Dew Point 55 °F
Humidity 99%
Rainfall 0.00 in
Snow Depth Not available.
7:01 AM 6:09 PM
Waxing Crescent, 40% visible
METAR KHOU 140853Z 12004KT 10SM SCT030 SCT180 14/13 A3011 RMK AO2 SLP201 T01390128 56027

10-Day Weather Forecast

Almanac

Astronomy

Feb. 14, 2016 Rise Set
Actual Time
Civil Twilight
Nautical Twilight
Astronomical Twilight
Moon
Length of Visible Light
Length of Day
Tomorrow will be .
, % of the Moon is Illuminated

Today's Extremes

State Highs State Lows

Community

WunderPhotos

Upload Photos

1,892,761 photos uploaded!

WunderBlog® & News

Nearby

Air Quality

  Air Quality AQ Index Pollutant
Not available.

Snow Depth

Station Depth Elevation

Earthquake Activity

City Distance Mag. Time & Date
Minimum magnitude displayed is 2.5.

Coastal Water Temperatures

Place Temperature

Stations

Nearby Weather Stations

Station Location Temp. Windchill Dew Point Humidity Wind Precip. Elev Updated Type
                   

Watches & Warnings

There are currently no watches in effect.